createdAt,value
2022-11-05T00:00:33.785Z,38.33
2022-11-05T00:02:53.994Z,39.63
2022-11-05T00:05:14.084Z,34.08
2022-11-05T00:07:37.066Z,35.40
2022-11-05T00:09:39.329Z,37.33
2022-11-05T00:11:59.409Z,32.90
2022-11-05T00:14:19.547Z,35.92
2022-11-05T00:16:39.464Z,36.05
2022-11-05T00:18:41.080Z,35.80
2022-11-05T00:20:42.686Z,41.05
2022-11-05T00:23:02.957Z,36.10
2022-11-05T00:25:17.011Z,34.63
2022-11-05T00:27:18.656Z,34.03
2022-11-05T00:29:20.288Z,32.30
2022-11-05T00:31:21.844Z,32.45
2022-11-05T00:33:23.388Z,32.83
2022-11-05T00:35:25.175Z,36.00
2022-11-05T00:37:30.187Z,35.05
2022-11-05T00:39:31.794Z,39.60
2022-11-05T00:41:33.440Z,38.80
2022-11-05T00:43:53.753Z,34.67
2022-11-05T00:45:55.489Z,35.97
2022-11-05T00:48:15.864Z,37.88
2022-11-05T00:50:21.704Z,35.67
2022-11-05T00:52:41.982Z,34.17
2022-11-05T00:54:43.904Z,34.45
2022-11-05T00:56:45.533Z,35.95
2022-11-05T00:58:47.146Z,38.40
2022-11-05T01:00:50.778Z,32.10
2022-11-05T01:02:52.561Z,37.38
2022-11-05T01:04:54.256Z,36.60
2022-11-05T01:06:55.904Z,35.83
2022-11-05T01:08:57.512Z,38.85
2022-11-05T01:10:59.436Z,36.13
2022-11-05T01:13:01.135Z,32.88
2022-11-05T01:15:02.910Z,36.40
2022-11-05T01:17:04.542Z,37.65
2022-11-05T01:19:08.626Z,32.33
2022-11-05T01:21:14.581Z,41.17
2022-11-05T01:23:16.657Z,34.45
2022-11-05T01:25:18.627Z,41.28
2022-11-05T01:27:20.292Z,39.03
2022-11-05T01:29:21.900Z,35.67
2022-11-05T01:31:24.189Z,34.80
2022-11-05T01:33:25.792Z,35.55
2022-11-05T01:35:27.408Z,37.30
2022-11-05T01:37:29.126Z,37.30
2022-11-05T01:39:30.733Z,33.42
2022-11-05T01:41:32.383Z,37.53
2022-11-05T01:43:46.018Z,35.92
2022-11-05T01:45:50.315Z,36.97
2022-11-05T01:48:03.273Z,32.25
2022-11-05T01:50:31.135Z,38.83
2022-11-05T01:52:34.124Z,38.00
2022-11-05T01:54:36.075Z,35.72
2022-11-05T01:56:44.311Z,34.95
2022-11-05T01:59:02.817Z,34.72
2022-11-05T02:01:04.455Z,40.22
2022-11-05T02:03:06.414Z,35.63
2022-11-05T02:05:08.358Z,40.38
2022-11-05T02:07:11.196Z,33.55
2022-11-05T02:09:18.236Z,38.65
2022-11-05T02:11:20.050Z,31.75
2022-11-05T02:13:21.675Z,39.17
2022-11-05T02:15:39.103Z,38.00
2022-11-05T02:18:01.016Z,36.63
2022-11-05T02:20:24.026Z,37.85
2022-11-05T02:23:10.922Z,33.60
2022-11-05T02:25:29.206Z,35.72
2022-11-05T02:28:15.522Z,38.15
2022-11-05T02:30:35.845Z,38.38
2022-11-05T02:32:55.516Z,34.67
2022-11-05T02:35:18.545Z,38.33
2022-11-05T02:37:46.376Z,40.35
2022-11-05T02:40:09.188Z,41.40
2022-11-05T02:42:55.259Z,36.67
2022-11-05T02:45:08.605Z,33.40
2022-11-05T02:47:14.070Z,30.10
2022-11-05T02:49:24.222Z,37.05
2022-11-05T02:51:35.309Z,35.78
2022-11-05T02:53:50.069Z,33.35
2022-11-05T02:55:55.805Z,36.03
2022-11-05T02:57:59.863Z,41.22
2022-11-05T03:00:04.304Z,32.28
2022-11-05T03:02:06.174Z,35.53
2022-11-05T03:04:11.513Z,36.58
2022-11-05T03:06:37.946Z,37.88
2022-11-05T03:09:21.230Z,38.97
2022-11-05T03:11:24.725Z,33.75
2022-11-05T03:13:35.607Z,36.85
2022-11-05T03:16:00.359Z,35.20
2022-11-05T03:18:29.490Z,30.98
2022-11-05T03:20:47.917Z,34.72
2022-11-05T03:23:30.757Z,38.20
2022-11-05T03:25:33.415Z,32.47
2022-11-05T03:27:38.921Z,36.10
2022-11-05T03:29:47.733Z,42.08
2022-11-05T03:31:50.707Z,35.80
2022-11-05T03:33:53.468Z,40.17
2022-11-05T03:36:00.060Z,38.67
2022-11-05T03:38:07.347Z,35.42
2022-11-05T03:40:10.310Z,36.30
2022-11-05T03:42:14.579Z,35.40
2022-11-05T03:44:25.206Z,39.15
2022-11-05T03:46:31.411Z,37.88
2022-11-05T03:48:36.601Z,35.13
2022-11-05T03:50:46.724Z,36.58
2022-11-05T03:53:01.087Z,35.30
2022-11-05T03:55:02.786Z,35.22
2022-11-05T03:57:17.287Z,34.92
2022-11-05T03:59:20.240Z,33.22
2022-11-05T04:01:21.973Z,37.13
2022-11-05T04:03:23.625Z,36.67
2022-11-05T04:05:25.241Z,39.00
2022-11-05T04:07:45.440Z,38.30
2022-11-05T04:10:05.305Z,32.15
2022-11-05T04:12:25.643Z,34.38
2022-11-05T04:14:27.382Z,32.92
2022-11-05T04:16:47.443Z,38.72
2022-11-05T04:18:49.057Z,35.92
2022-11-05T04:21:09.198Z,33.65
2022-11-05T04:23:29.784Z,35.95
2022-11-05T04:25:31.450Z,34.70
2022-11-05T04:27:33.231Z,37.97
2022-11-05T04:29:53.233Z,37.75
2022-11-05T04:31:55.015Z,36.65
2022-11-05T04:33:56.753Z,36.65
2022-11-05T04:36:00.321Z,33.38
2022-11-05T04:38:02.900Z,34.53
2022-11-05T04:40:04.938Z,35.38
2022-11-05T04:42:06.512Z,35.65
2022-11-05T04:44:08.150Z,32.13
2022-11-05T04:46:10.330Z,34.78
2022-11-05T04:48:12.184Z,41.95
2022-11-05T04:50:13.888Z,34.08
2022-11-05T04:52:15.657Z,33.22
2022-11-05T04:54:17.844Z,36.92
2022-11-05T04:56:23.815Z,34.95
2022-11-05T04:58:25.627Z,39.83
2022-11-05T05:00:27.396Z,31.77
2022-11-05T05:02:29.224Z,35.65
2022-11-05T05:04:30.887Z,44.13
2022-11-05T05:06:32.468Z,38.53
2022-11-05T05:08:34.132Z,33.95
2022-11-05T05:10:36.021Z,32.38
2022-11-05T05:12:37.697Z,35.55
2022-11-05T05:14:39.337Z,29.42
2022-11-05T05:16:41.013Z,32.50
2022-11-05T05:18:46.214Z,33.95
2022-11-05T05:21:06.490Z,33.55
2022-11-05T05:23:08.583Z,29.48
2022-11-05T05:25:10.412Z,37.50
2022-11-05T05:27:12.049Z,40.33
2022-11-05T05:29:14.118Z,38.78
2022-11-05T05:31:15.856Z,34.17
2022-11-05T05:33:17.463Z,30.50
2022-11-05T05:35:19.145Z,40.17
2022-11-05T05:37:20.848Z,32.15
2022-11-05T05:39:22.456Z,36.47
2022-11-05T05:41:24.230Z,33.65
2022-11-05T05:43:34.751Z,38.33
2022-11-05T05:45:36.540Z,39.67
2022-11-05T05:47:38.145Z,56.72
2022-11-05T05:49:40.133Z,51.97
2022-11-05T05:51:41.863Z,44.55
2022-11-05T05:53:44.954Z,38.95
2022-11-05T05:55:46.661Z,37.97
2022-11-05T05:57:48.277Z,36.25
2022-11-05T05:59:49.883Z,41.95
2022-11-05T06:01:51.698Z,43.22
2022-11-05T06:03:53.447Z,50.70
2022-11-05T06:06:00.383Z,50.33
2022-11-05T06:08:02.056Z,46.40
2022-11-05T06:10:04.978Z,41.30
2022-11-05T06:12:06.754Z,44.60
2022-11-05T06:14:12.470Z,48.75
2022-11-05T06:16:14.047Z,43.90
2022-11-05T06:18:15.635Z,37.28
2022-11-05T06:20:17.335Z,37.38
2022-11-05T06:22:18.900Z,39.92
2022-11-05T06:24:20.499Z,43.35
2022-11-05T06:26:22.206Z,38.90
2022-11-05T06:28:23.771Z,42.17
2022-11-05T06:30:25.380Z,39.58
2022-11-05T06:32:27.131Z,42.03
2022-11-05T06:34:29.172Z,37.67
2022-11-05T06:36:30.800Z,40.95
2022-11-05T06:38:34.242Z,39.38
2022-11-05T06:40:35.878Z,39.30
2022-11-05T06:42:37.459Z,40.38
2022-11-05T06:44:39.128Z,34.95
2022-11-05T06:46:44.458Z,34.13
2022-11-05T06:48:51.034Z,37.20
2022-11-05T06:50:52.957Z,36.17
2022-11-05T06:52:56.267Z,38.47
2022-11-05T06:54:57.938Z,42.90
2022-11-05T06:57:00.001Z,34.22
2022-11-05T06:59:01.809Z,39.60
2022-11-05T07:01:08.771Z,35.78
2022-11-05T07:03:11.928Z,33.85
2022-11-05T07:05:15.180Z,32.28
2022-11-05T07:07:16.744Z,38.30
2022-11-05T07:09:19.166Z,39.75
2022-11-05T07:11:20.858Z,34.28
2022-11-05T07:13:22.464Z,35.05
2022-11-05T07:15:24.038Z,31.25
2022-11-05T07:17:25.869Z,31.25
2022-11-05T07:19:27.459Z,33.97
2022-11-05T07:21:29.322Z,33.35
2022-11-05T07:23:31.001Z,33.00
2022-11-05T07:25:33.284Z,31.17
2022-11-05T07:27:40.999Z,39.40
2022-11-05T07:29:42.650Z,30.40
2022-11-05T07:31:44.288Z,30.70
2022-11-05T07:33:45.891Z,31.67
2022-11-05T07:35:47.541Z,28.85
2022-11-05T07:37:50.852Z,33.10
2022-11-05T07:39:52.443Z,34.15
2022-11-05T07:41:58.082Z,35.90
2022-11-05T07:43:59.713Z,30.25
2022-11-05T07:46:01.332Z,30.90
2022-11-05T07:48:04.324Z,30.40
2022-11-05T07:50:08.097Z,38.95
2022-11-05T07:54:11.290Z,30.83
2022-11-05T07:56:13.036Z,31.85
2022-11-05T07:58:14.651Z,36.50
2022-11-05T08:00:20.366Z,32.25
2022-11-05T08:02:22.139Z,28.33
2022-11-05T08:04:24.042Z,29.40
2022-11-05T08:06:25.741Z,32.47
2022-11-05T08:08:27.470Z,30.80
2022-11-05T08:10:29.194Z,25.65
2022-11-05T08:12:31.967Z,29.85
2022-11-05T08:14:33.669Z,31.65
2022-11-05T08:16:35.323Z,29.08
2022-11-05T08:18:37.000Z,32.20
2022-11-05T08:20:38.977Z,31.83
2022-11-05T08:22:44.550Z,31.27
2022-11-05T08:24:46.163Z,30.50
2022-11-05T08:26:47.767Z,31.00
2022-11-05T08:28:49.321Z,31.65
2022-11-05T08:30:56.217Z,37.95
2022-11-05T08:32:59.186Z,32.53
2022-11-05T08:35:00.782Z,32.65
2022-11-05T08:37:02.440Z,34.85
2022-11-05T08:39:04.350Z,32.28
2022-11-05T08:41:06.292Z,35.47
2022-11-05T08:43:10.795Z,32.97
2022-11-05T08:45:12.535Z,32.55
2022-11-05T08:47:14.147Z,29.85
2022-11-05T08:49:15.752Z,31.15
2022-11-05T08:51:17.332Z,32.38
2022-11-05T08:53:19.049Z,30.17
2022-11-05T08:55:20.661Z,30.00
2022-11-05T08:57:22.265Z,43.40
2022-11-05T08:59:23.988Z,33.60
2022-11-05T09:01:25.668Z,33.90
2022-11-05T09:03:27.374Z,35.80
2022-11-05T09:05:30.135Z,35.58
2022-11-05T09:07:31.745Z,36.65
2022-11-05T09:09:33.421Z,29.13
2022-11-05T09:12:05.404Z,28.65
2022-11-05T09:13:56.601Z,26.40
2022-11-05T09:15:58.976Z,25.70
2022-11-05T09:18:00.639Z,27.83
2022-11-05T09:20:04.006Z,26.88
2022-11-05T09:22:05.690Z,27.80
2022-11-05T09:24:07.613Z,25.17
2022-11-05T09:26:10.235Z,26.77
2022-11-05T09:28:20.415Z,27.88
2022-11-05T09:30:22.110Z,28.10
2022-11-05T09:32:23.793Z,27.15
2022-11-05T09:34:25.395Z,20.27
2022-11-05T09:36:27.202Z,31.13
2022-11-05T09:38:28.919Z,30.05
2022-11-05T09:40:32.532Z,31.67
2022-11-05T09:42:42.353Z,22.83
2022-11-05T09:44:51.175Z,25.42
2022-11-05T09:46:59.723Z,24.58
2022-11-05T09:49:07.775Z,32.15
2022-11-05T09:51:11.572Z,28.88
2022-11-05T09:53:16.254Z,26.95
2022-11-05T09:55:32.204Z,25.13
2022-11-05T09:57:46.539Z,24.27
2022-11-05T09:59:53.257Z,27.75
2022-11-05T10:02:02.967Z,24.33
2022-11-05T10:04:18.422Z,23.05
2022-11-05T10:06:22.504Z,27.27
2022-11-05T10:08:28.956Z,21.95
2022-11-05T10:10:30.547Z,21.73
2022-11-05T10:12:36.623Z,23.48
2022-11-05T10:14:42.787Z,26.85
2022-11-05T10:16:49.148Z,24.38
2022-11-05T10:18:59.223Z,19.40
2022-11-05T10:21:01.166Z,22.92
2022-11-05T10:23:10.374Z,19.63
2022-11-05T10:25:21.207Z,18.95
2022-11-05T10:27:27.791Z,24.58
2022-11-05T10:29:32.691Z,25.88
2022-11-05T10:31:36.343Z,22.67
2022-11-05T10:35:50.573Z,22.17
2022-11-05T10:37:53.681Z,20.27
2022-11-05T10:39:55.629Z,22.85
2022-11-05T10:42:34.281Z,19.38
2022-11-05T10:44:40.328Z,17.25
2022-11-05T10:47:08.909Z,23.60
2022-11-05T10:49:19.707Z,21.58
2022-11-05T10:51:21.387Z,18.38
2022-11-05T10:53:27.823Z,20.55
2022-11-05T10:55:32.780Z,23.42
2022-11-05T10:57:39.634Z,22.67
2022-11-05T10:59:41.553Z,22.80
2022-11-05T11:01:43.831Z,31.50
2022-11-05T11:03:51.302Z,26.02
2022-11-05T11:05:59.888Z,27.23
2022-11-05T11:08:10.568Z,18.65
2022-11-05T11:10:22.584Z,24.10
2022-11-05T11:12:27.539Z,25.20
2022-11-05T11:14:29.437Z,23.60
2022-11-05T11:16:38.694Z,22.23
2022-11-05T11:18:43.119Z,23.55
2022-11-05T11:20:46.625Z,26.58
2022-11-05T11:23:15.090Z,22.55
2022-11-05T11:25:29.483Z,24.88
2022-11-05T11:27:33.750Z,22.08
2022-11-05T11:29:42.884Z,22.02
2022-11-05T11:31:48.083Z,24.60
2022-11-05T11:33:53.342Z,22.10
2022-11-05T11:35:55.334Z,18.25
2022-11-05T11:37:57.864Z,20.92
2022-11-05T11:40:05.896Z,22.65
2022-11-05T11:42:14.258Z,15.90
2022-11-05T11:44:20.178Z,19.35
2022-11-05T11:46:21.924Z,22.08
2022-11-05T11:48:29.591Z,23.02
2022-11-05T11:50:38.798Z,24.70
2022-11-05T11:52:40.771Z,24.77
2022-11-05T11:54:42.655Z,21.13
2022-11-05T11:56:46.681Z,20.02
2022-11-05T11:58:52.101Z,20.85
2022-11-05T12:01:09.317Z,22.02
2022-11-05T12:03:11.246Z,21.20
2022-11-05T12:05:31.465Z,17.05
2022-11-05T12:07:52.904Z,26.73
2022-11-05T12:10:04.315Z,23.13
2022-11-05T12:12:11.155Z,30.38
2022-11-05T12:14:25.016Z,36.03
2022-11-05T12:16:35.415Z,29.65
2022-11-05T12:18:54.537Z,19.38
2022-11-05T12:21:01.924Z,18.00
2022-11-05T12:23:44.068Z,19.60
2022-11-05T12:26:03.411Z,32.00
2022-11-05T12:28:19.642Z,21.50
2022-11-05T12:30:22.082Z,20.75
2022-11-05T12:32:59.207Z,24.33
2022-11-05T12:35:09.891Z,21.50
2022-11-05T12:37:26.625Z,24.92
2022-11-05T12:39:53.164Z,26.77
2022-11-05T12:42:02.355Z,28.75
2022-11-05T12:44:16.057Z,22.92
2022-11-05T12:46:40.506Z,21.40
2022-11-05T12:50:51.385Z,19.42
2022-11-05T12:53:11.962Z,19.75
2022-11-05T12:55:20.398Z,19.08
2022-11-05T12:57:22.892Z,17.80
2022-11-05T12:59:27.564Z,22.63
2022-11-05T13:01:37.611Z,20.00
2022-11-05T13:03:43.852Z,18.77
2022-11-05T13:05:50.005Z,19.00
2022-11-05T13:07:58.393Z,19.90
2022-11-05T13:10:23.720Z,22.80
2022-11-05T13:12:27.673Z,20.00
2022-11-05T13:14:36.352Z,17.00
2022-11-05T13:16:41.881Z,18.52
2022-11-05T13:18:48.443Z,16.90
2022-11-05T13:20:51.575Z,22.58
2022-11-05T13:23:00.876Z,20.58
2022-11-05T13:25:11.014Z,19.48
2022-11-05T13:27:21.441Z,22.25
2022-11-05T13:29:32.147Z,20.08
2022-11-05T13:31:39.971Z,22.98
2022-11-05T13:33:44.063Z,21.27
2022-11-05T13:36:13.072Z,24.50
2022-11-05T13:38:44.131Z,26.70
2022-11-05T13:41:23.093Z,23.05
2022-11-05T13:43:52.635Z,26.95
2022-11-05T13:46:22.645Z,20.88
2022-11-05T13:48:44.780Z,26.20
2022-11-05T13:51:14.109Z,23.27
2022-11-05T13:53:30.996Z,25.05
2022-11-05T13:55:54.263Z,28.02
2022-11-05T13:59:03.691Z,21.90
2022-11-05T14:01:34.630Z,24.98
2022-11-05T14:03:37.252Z,23.92
2022-11-05T14:05:41.462Z,50.92
2022-11-05T14:07:47.285Z,27.65
2022-11-05T14:09:59.898Z,24.40
2022-11-05T14:12:01.969Z,24.65
2022-11-05T14:14:06.025Z,18.70
2022-11-05T14:16:20.858Z,23.08
2022-11-05T14:18:25.619Z,23.10
2022-11-05T14:20:32.976Z,27.90
2022-11-05T14:22:38.362Z,20.30
2022-11-05T14:24:43.452Z,37.47
2022-11-05T14:26:45.324Z,27.30
2022-11-05T14:28:51.578Z,26.38
2022-11-05T14:30:53.553Z,26.30
2022-11-05T14:33:03.551Z,24.25
2022-11-05T14:35:17.464Z,37.63
2022-11-05T14:37:23.826Z,24.15
2022-11-05T14:39:28.529Z,29.45
2022-11-05T14:41:30.181Z,29.65
2022-11-05T14:43:33.109Z,30.08
2022-11-05T14:45:37.542Z,36.45
2022-11-05T14:47:42.256Z,28.52
2022-11-05T14:49:53.593Z,27.88
2022-11-05T14:51:59.979Z,29.48
2022-11-05T14:54:22.821Z,29.15
2022-11-05T14:56:24.431Z,40.15
2022-11-05T14:58:31.934Z,31.95
2022-11-05T15:00:36.531Z,24.75
2022-11-05T15:02:38.555Z,34.45
2022-11-05T15:04:45.587Z,31.80
2022-11-05T15:07:22.441Z,32.95
2022-11-05T15:09:35.372Z,27.65
2022-11-05T15:11:45.950Z,22.80
2022-11-05T15:13:53.519Z,27.83
2022-11-05T15:15:55.190Z,27.83
2022-11-05T15:18:30.513Z,25.77
2022-11-05T15:20:49.065Z,27.73
2022-11-05T15:22:59.715Z,27.80
2022-11-05T15:25:01.563Z,31.75
2022-11-05T15:27:25.014Z,22.92
2022-11-05T15:29:28.902Z,25.45
2022-11-05T15:31:41.116Z,24.85
2022-11-05T15:33:44.819Z,29.38
2022-11-05T15:37:54.605Z,28.38
2022-11-05T15:39:59.089Z,30.23
2022-11-05T15:42:04.880Z,33.80
2022-11-05T15:44:06.546Z,35.97
2022-11-05T15:46:15.515Z,35.55
2022-11-05T15:48:19.591Z,39.72
2022-11-05T15:50:21.304Z,27.70
2022-11-05T15:52:36.391Z,32.03
2022-11-05T15:54:38.337Z,36.15
2022-11-05T15:56:48.223Z,33.22
2022-11-05T15:58:54.859Z,30.52
2022-11-05T16:00:56.616Z,31.80
2022-11-05T16:03:04.485Z,29.33
2022-11-05T16:05:12.666Z,30.10
2022-11-05T16:07:14.613Z,29.08
2022-11-05T16:09:31.048Z,24.75
2022-11-05T16:11:32.648Z,32.50
2022-11-05T16:13:35.841Z,25.27
2022-11-05T16:15:37.714Z,34.90
2022-11-05T16:17:57.559Z,33.00
2022-11-05T16:19:59.353Z,31.90
2022-11-05T16:22:05.658Z,28.30
2022-11-05T16:24:26.524Z,39.78
2022-11-05T16:27:00.797Z,31.02
2022-11-05T16:28:53.004Z,32.10
2022-11-05T16:30:59.727Z,31.05
2022-11-05T16:33:05.885Z,29.38
2022-11-05T16:35:15.965Z,34.88
2022-11-05T16:37:19.540Z,31.25
2022-11-05T16:39:21.186Z,33.97
2022-11-05T16:41:23.246Z,36.72
2022-11-05T16:43:26.127Z,30.05
2022-11-05T16:45:27.783Z,34.83
2022-11-05T16:47:31.207Z,38.60
2022-11-05T16:49:32.878Z,33.03
2022-11-05T16:51:34.511Z,26.70
2022-11-05T16:53:36.099Z,33.28
2022-11-05T16:55:39.653Z,30.05
2022-11-05T16:57:43.512Z,32.13
2022-11-05T16:59:45.103Z,28.15
2022-11-05T17:01:50.326Z,32.90
2022-11-05T17:03:54.642Z,30.63
2022-11-05T17:05:56.292Z,35.42
2022-11-05T17:07:58.564Z,35.60
2022-11-05T17:10:00.179Z,33.45
2022-11-05T17:12:02.500Z,32.42
2022-11-05T17:14:04.149Z,32.15
2022-11-05T17:16:05.905Z,34.22
2022-11-05T17:18:07.689Z,31.83
2022-11-05T17:20:14.887Z,31.27
2022-11-05T17:22:16.527Z,33.58
2022-11-05T17:24:18.167Z,38.05
2022-11-05T17:26:19.805Z,37.88
2022-11-05T17:28:21.553Z,30.77
2022-11-05T17:30:23.697Z,32.13
2022-11-05T17:32:25.421Z,30.08
2022-11-05T17:34:27.080Z,30.17
2022-11-05T17:36:28.776Z,34.30
2022-11-05T17:38:30.396Z,38.38
2022-11-05T17:40:34.050Z,45.95
2022-11-05T17:42:35.714Z,41.47
2022-11-05T17:44:37.821Z,46.90
2022-11-05T17:46:39.392Z,45.72
2022-11-05T17:48:41.506Z,43.97
2022-11-05T17:50:45.090Z,46.78
2022-11-05T17:52:46.926Z,49.00
2022-11-05T17:54:48.657Z,42.45
2022-11-05T17:56:50.229Z,50.15
2022-11-05T17:58:51.909Z,49.45
2022-11-05T18:00:53.548Z,59.67
2022-11-05T18:02:55.208Z,52.30
2022-11-05T18:04:56.998Z,50.95
2022-11-05T18:06:58.591Z,45.30
2022-11-05T18:09:00.237Z,52.55
2022-11-05T18:11:02.369Z,46.65
2022-11-05T18:13:04.022Z,62.20
2022-11-05T18:15:06.403Z,70.90
2022-11-05T18:17:08.649Z,54.45
2022-11-05T18:19:10.268Z,53.58
2022-11-05T18:21:12.195Z,57.45
2022-11-05T18:23:14.516Z,47.03
2022-11-05T18:25:17.371Z,49.65
2022-11-05T18:27:19.066Z,44.50
2022-11-05T18:29:20.895Z,51.03
2022-11-05T18:31:22.896Z,43.38
2022-11-05T18:33:24.609Z,50.13
2022-11-05T18:35:26.264Z,47.45
2022-11-05T18:37:27.905Z,57.35
2022-11-05T18:39:29.792Z,45.80
2022-11-05T18:41:31.581Z,46.53
2022-11-05T18:43:33.229Z,46.63
2022-11-05T18:45:35.069Z,49.63
2022-11-05T18:47:36.795Z,48.35
2022-11-05T18:49:39.547Z,45.33
2022-11-05T18:51:41.177Z,43.08
2022-11-05T18:53:43.340Z,52.08
2022-11-05T18:55:44.982Z,41.53
2022-11-05T18:57:46.595Z,46.80
2022-11-05T18:59:48.246Z,46.72
2022-11-05T19:01:50.104Z,43.58
2022-11-05T19:03:52.175Z,44.05
2022-11-05T19:05:53.728Z,37.45
2022-11-05T19:07:55.447Z,43.58
2022-11-05T19:09:57.054Z,41.63
2022-11-05T19:11:58.772Z,41.20
2022-11-05T19:14:00.660Z,44.55
2022-11-05T19:16:02.689Z,38.63
2022-11-05T19:18:04.318Z,39.40
2022-11-05T19:20:06.977Z,41.22
2022-11-05T19:22:08.586Z,40.00
2022-11-05T19:24:10.394Z,39.72
2022-11-05T19:26:17.458Z,51.90
2022-11-05T19:28:21.847Z,46.28
2022-11-05T19:30:23.820Z,47.10
2022-11-05T19:32:25.518Z,41.97
2022-11-05T19:34:27.322Z,39.00
2022-11-05T19:36:30.042Z,43.70
2022-11-05T19:38:31.675Z,51.30
2022-11-05T19:40:33.249Z,63.15
2022-11-05T19:42:34.925Z,43.95
2022-11-05T19:44:36.727Z,43.58
2022-11-05T19:46:38.540Z,38.17
2022-11-05T19:48:40.200Z,36.75
2022-11-05T19:50:43.160Z,38.03
2022-11-05T19:52:44.849Z,36.63
2022-11-05T19:54:46.466Z,39.20
2022-11-05T19:56:50.084Z,53.72
2022-11-05T19:58:53.222Z,44.72
2022-11-05T20:00:55.961Z,40.78
2022-11-05T20:02:57.783Z,47.33
2022-11-05T20:04:59.528Z,42.58
2022-11-05T20:07:01.129Z,40.03
2022-11-05T20:09:20.976Z,43.08
2022-11-05T20:11:23.599Z,43.83
2022-11-05T20:13:25.239Z,40.15
2022-11-05T20:15:27.039Z,36.30
2022-11-05T20:17:28.888Z,34.17
2022-11-05T20:19:30.648Z,39.28
2022-11-05T20:21:32.909Z,34.08
2022-11-05T20:23:36.064Z,35.85
2022-11-05T20:25:37.717Z,35.33
2022-11-05T20:27:40.246Z,40.38
2022-11-05T20:29:42.968Z,35.55
2022-11-05T20:31:44.548Z,34.92
2022-11-05T20:33:46.311Z,35.60
2022-11-05T20:35:48.670Z,35.53
2022-11-05T20:37:53.974Z,36.47
2022-11-05T20:39:56.019Z,32.55
2022-11-05T20:41:57.669Z,29.08
2022-11-05T20:43:59.521Z,32.53
2022-11-05T20:46:01.184Z,40.25
2022-11-05T20:48:02.786Z,42.35
2022-11-05T20:50:05.472Z,33.63
2022-11-05T20:52:07.540Z,38.88
2022-11-05T20:54:09.739Z,38.00
2022-11-05T20:56:26.038Z,41.85
2022-11-05T20:58:28.285Z,35.47
2022-11-05T21:00:29.862Z,41.55
2022-11-05T21:02:31.543Z,41.78
2022-11-05T21:04:33.201Z,43.35
2022-11-05T21:06:35.921Z,41.33
2022-11-05T21:08:37.780Z,38.15
2022-11-05T21:10:39.373Z,41.28
2022-11-05T21:12:42.839Z,42.13
2022-11-05T21:14:44.606Z,40.63
2022-11-05T21:16:46.221Z,36.42
2022-11-05T21:18:48.302Z,35.67
2022-11-05T21:20:50.272Z,36.88
2022-11-05T21:22:51.863Z,37.72
2022-11-05T21:24:53.673Z,38.45
2022-11-05T21:26:55.389Z,34.17
2022-11-05T21:28:57.006Z,46.33
2022-11-05T21:31:02.743Z,45.60
2022-11-05T21:33:05.383Z,36.40
2022-11-05T21:35:07.374Z,34.63
2022-11-05T21:37:09.020Z,32.95
2022-11-05T21:39:13.741Z,35.88
2022-11-05T21:41:15.504Z,35.60
2022-11-05T21:43:17.309Z,36.03
2022-11-05T21:45:18.884Z,33.60
2022-11-05T21:47:20.577Z,34.85
2022-11-05T21:49:22.155Z,39.25
2022-11-05T21:51:42.532Z,31.52
2022-11-05T21:54:03.278Z,33.75
2022-11-05T21:56:26.032Z,32.97
2022-11-05T21:58:46.087Z,38.75
2022-11-05T22:00:47.797Z,33.42
2022-11-05T22:02:49.734Z,38.90
2022-11-05T22:04:53.050Z,36.83
2022-11-05T22:06:54.912Z,42.53
2022-11-05T22:08:56.511Z,37.72
2022-11-05T22:10:58.146Z,37.08
2022-11-05T22:13:01.094Z,35.05
2022-11-05T22:15:03.177Z,34.50
2022-11-05T22:17:05.564Z,36.58
2022-11-05T22:19:07.354Z,35.00
2022-11-05T22:21:08.952Z,33.72
2022-11-05T22:23:11.482Z,33.70
2022-11-05T22:25:15.888Z,31.67
2022-11-05T22:27:19.260Z,30.90
2022-11-05T22:29:22.104Z,34.30
2022-11-05T22:31:23.784Z,37.23
2022-11-05T22:33:25.423Z,34.03
2022-11-05T22:35:27.119Z,31.60
2022-11-05T22:37:28.676Z,33.10
2022-11-05T22:39:30.438Z,34.63
2022-11-05T22:41:32.316Z,34.72
2022-11-05T22:43:34.007Z,33.85
2022-11-05T22:45:36.506Z,34.42
2022-11-05T22:47:38.184Z,31.90
2022-11-05T22:49:39.949Z,34.58
2022-11-05T22:51:41.599Z,32.55
2022-11-05T22:53:43.684Z,33.05
2022-11-05T22:55:45.276Z,36.38
2022-11-05T22:57:46.899Z,33.58
2022-11-05T22:59:48.544Z,32.72
2022-11-05T23:01:50.363Z,32.38
2022-11-05T23:03:53.195Z,33.50
2022-11-05T23:05:58.793Z,31.48
2022-11-05T23:08:18.898Z,37.17
2022-11-05T23:10:39.262Z,38.10
2022-11-05T23:12:43.219Z,32.88
2022-11-05T23:14:44.800Z,32.30
2022-11-05T23:17:05.245Z,39.92
2022-11-05T23:19:25.586Z,31.92
2022-11-05T23:21:46.017Z,33.83
2022-11-05T23:24:05.858Z,30.63
2022-11-05T23:26:27.468Z,27.75
2022-11-05T23:28:29.035Z,31.20
2022-11-05T23:30:30.647Z,35.65
2022-11-05T23:32:32.838Z,35.10
2022-11-05T23:34:36.127Z,29.92
2022-11-05T23:36:56.276Z,33.22
2022-11-05T23:38:58.088Z,32.40
2022-11-05T23:41:21.861Z,34.95
2022-11-05T23:43:42.097Z,33.42
2022-11-05T23:46:03.202Z,30.70
2022-11-05T23:48:34.944Z,36.92
2022-11-05T23:50:39.740Z,35.63
2022-11-05T23:52:41.835Z,37.70
2022-11-05T23:54:43.480Z,40.78
2022-11-05T23:56:45.927Z,32.90
2022-11-05T23:58:47.588Z,31.95
